RYR69LM LIMC-EIDW
Flight info
| Callsign | RYR69LM |
|---|---|
| Flight time | N/A |
| Altitude | 38000 |
| Route | DOGUB6TXAOSTA5W/35R AOSTA DCT ORSUD DCT MOLUS DCT IBODI DCT GOTED DCT TRO DCT CLM DCT KOPOR DCT VESAN DCT RATUK DCT SOVAT L613 SANDY DCT OKSAW DCT TEWXI DCT LANON L18 ABLIN |
| Aircraft | B738/M-SDGIJ1LRWY/SB1 |
Departure
| Time | N/A |
|---|---|
| Airport | Milan Malpensa International Airport (LIMC) |
Arrival
| Time | 2026-05-06 14:34 |
|---|---|
| Airport | Dublin Airport (EIDW) |
| Time | Latitude | Longitude | Altitude | Speed | Heading |
|---|---|---|---|---|---|
| 2026-05-06 12:52 | 46.56387 | 6.49669 | 36206 ft | 448 kts | 309° |
| 2026-05-06 12:53 | 46.58571 | 6.46408 | 36535 ft | 445 kts | 309° |
| 2026-05-06 12:53 | 46.60711 | 6.43194 | 36785 ft | 445 kts | 310° |
| 2026-05-06 12:53 | 46.62853 | 6.39962 | 37017 ft | 445 kts | 310° |
| 2026-05-06 12:53 | 46.65007 | 6.36698 | 37231 ft | 446 kts | 309° |
| 2026-05-06 12:54 | 46.67138 | 6.33459 | 37458 ft | 445 kts | 309° |
| 2026-05-06 12:54 | 46.69284 | 6.30187 | 37682 ft | 445 kts | 309° |
| 2026-05-06 12:54 | 46.71426 | 6.26916 | 37856 ft | 446 kts | 309° |
| 2026-05-06 12:55 | 46.75687 | 6.20388 | 37880 ft | 451 kts | 309° |
| 2026-05-06 12:55 | 46.80033 | 6.13706 | 37882 ft | 459 kts | 309° |
| 2026-05-06 12:56 | 46.84433 | 6.06927 | 37887 ft | 466 kts | 309° |
| 2026-05-06 12:56 | 46.88896 | 6.00038 | 37887 ft | 466 kts | 310° |
| 2026-05-06 12:57 | 46.93387 | 5.93256 | 37887 ft | 467 kts | 313° |
| 2026-05-06 12:57 | 46.98505 | 5.87444 | 37892 ft | 472 kts | 325° |
| 2026-05-06 12:58 | 47.04248 | 5.82752 | 37893 ft | 475 kts | 330° |
| 2026-05-06 12:58 | 47.10135 | 5.78371 | 37895 ft | 475 kts | 330° |
| 2026-05-06 12:59 | 47.16004 | 5.73998 | 37889 ft | 474 kts | 330° |
| 2026-05-06 12:59 | 47.21817 | 5.69591 | 37888 ft | 473 kts | 329° |
| 2026-05-06 13:00 | 47.27662 | 5.65096 | 37880 ft | 474 kts | 329° |
| 2026-05-06 13:00 | 47.33458 | 5.60602 | 37878 ft | 473 kts | 329° |
| 2026-05-06 13:01 | 47.39247 | 5.56092 | 37875 ft | 473 kts | 329° |
| 2026-05-06 13:01 | 47.45068 | 5.51542 | 37876 ft | 473 kts | 330° |
| 2026-05-06 13:02 | 47.50722 | 5.46732 | 37870 ft | 470 kts | 322° |
| 2026-05-06 13:02 | 47.55407 | 5.40151 | 37867 ft | 464 kts | 307° |
| 2026-05-06 13:03 | 47.59296 | 5.32619 | 37855 ft | 462 kts | 303° |
| 2026-05-06 13:03 | 47.63027 | 5.24905 | 37843 ft | 462 kts | 303° |
| 2026-05-06 13:04 | 47.66772 | 5.17158 | 37841 ft | 463 kts | 303° |
| 2026-05-06 13:04 | 47.70526 | 5.09458 | 37838 ft | 463 kts | 303° |
| 2026-05-06 13:05 | 47.74300 | 5.01755 | 37842 ft | 463 kts | 303° |
| 2026-05-06 13:05 | 47.78076 | 4.94054 | 37848 ft | 463 kts | 303° |
| 2026-05-06 13:06 | 47.81861 | 4.86322 | 37850 ft | 463 kts | 303° |
| 2026-05-06 13:06 | 47.85617 | 4.78627 | 37853 ft | 463 kts | 304° |
| 2026-05-06 13:07 | 47.89399 | 4.70853 | 37857 ft | 462 kts | 304° |
| 2026-05-06 13:07 | 47.93135 | 4.63157 | 37856 ft | 462 kts | 304° |
| 2026-05-06 13:08 | 47.96904 | 4.55370 | 37859 ft | 462 kts | 304° |
| 2026-05-06 13:08 | 48.00636 | 4.47635 | 37859 ft | 463 kts | 304° |
| 2026-05-06 13:09 | 48.04397 | 4.39820 | 37856 ft | 462 kts | 304° |
| 2026-05-06 13:09 | 48.08135 | 4.32031 | 37857 ft | 462 kts | 303° |
| 2026-05-06 13:10 | 48.11863 | 4.24242 | 37861 ft | 462 kts | 303° |
| 2026-05-06 13:10 | 48.15567 | 4.16477 | 37866 ft | 463 kts | 303° |
| 2026-05-06 13:11 | 48.19307 | 4.08619 | 37870 ft | 462 kts | 303° |
| 2026-05-06 13:11 | 48.23018 | 4.00800 | 37877 ft | 462 kts | 303° |
| 2026-05-06 13:12 | 48.26967 | 3.93246 | 37877 ft | 463 kts | 309° |
| 2026-05-06 13:12 | 48.31362 | 3.86154 | 37875 ft | 464 kts | 312° |
| 2026-05-06 13:13 | 48.35848 | 3.79205 | 37880 ft | 464 kts | 312° |
| 2026-05-06 13:13 | 48.40287 | 3.72299 | 37878 ft | 463 kts | 312° |
| 2026-05-06 13:14 | 48.44742 | 3.65298 | 37879 ft | 463 kts | 312° |
| 2026-05-06 13:14 | 48.49175 | 3.58271 | 37882 ft | 463 kts | 312° |
| 2026-05-06 13:15 | 48.53580 | 3.51252 | 37884 ft | 463 kts | 312° |
| 2026-05-06 13:15 | 48.57991 | 3.44195 | 37889 ft | 463 kts | 312° |
| 2026-05-06 13:16 | 48.62411 | 3.37104 | 37887 ft | 462 kts | 312° |
| 2026-05-06 13:16 | 48.66801 | 3.30041 | 37886 ft | 461 kts | 311° |
| 2026-05-06 13:17 | 48.71195 | 3.22952 | 37894 ft | 462 kts | 311° |
| 2026-05-06 13:17 | 48.75558 | 3.15891 | 37889 ft | 462 kts | 311° |
| 2026-05-06 13:18 | 48.79934 | 3.08790 | 37886 ft | 462 kts | 311° |
| 2026-05-06 13:18 | 48.84510 | 3.01963 | 37894 ft | 463 kts | 319° |
| 2026-05-06 13:19 | 48.89785 | 2.96385 | 37895 ft | 464 kts | 327° |
| 2026-05-06 13:19 | 48.95360 | 2.91512 | 37889 ft | 463 kts | 330° |
| 2026-05-06 13:20 | 49.00947 | 2.86776 | 37894 ft | 463 kts | 329° |
| 2026-05-06 13:20 | 49.06547 | 2.81975 | 37894 ft | 463 kts | 329° |
| 2026-05-06 13:21 | 49.12155 | 2.77094 | 37901 ft | 463 kts | 329° |
| 2026-05-06 13:21 | 49.17739 | 2.72185 | 37892 ft | 463 kts | 329° |
| 2026-05-06 13:22 | 49.23302 | 2.67265 | 37898 ft | 463 kts | 329° |
| 2026-05-06 13:22 | 49.28870 | 2.62324 | 37908 ft | 463 kts | 329° |
| 2026-05-06 13:23 | 49.34408 | 2.57393 | 37899 ft | 462 kts | 329° |
| 2026-05-06 13:23 | 49.39958 | 2.52438 | 37900 ft | 462 kts | 329° |
| 2026-05-06 13:24 | 49.45465 | 2.47507 | 37896 ft | 461 kts | 329° |
| 2026-05-06 13:24 | 49.51085 | 2.42778 | 37889 ft | 462 kts | 334° |
| 2026-05-06 13:25 | 49.57064 | 2.39287 | 37900 ft | 463 kts | 342° |
| 2026-05-06 13:25 | 49.63245 | 2.36485 | 37902 ft | 463 kts | 343° |
| 2026-05-06 13:26 | 49.69401 | 2.33817 | 37893 ft | 462 kts | 343° |
| 2026-05-06 13:26 | 49.75583 | 2.31092 | 37903 ft | 462 kts | 343° |
| 2026-05-06 13:27 | 49.81728 | 2.28330 | 37900 ft | 462 kts | 342° |
| 2026-05-06 13:27 | 49.87887 | 2.25526 | 37906 ft | 462 kts | 342° |
| 2026-05-06 13:28 | 49.94017 | 2.22715 | 37907 ft | 461 kts | 342° |
| 2026-05-06 13:28 | 50.00156 | 2.19887 | 37907 ft | 461 kts | 342° |
| 2026-05-06 13:29 | 50.06269 | 2.17061 | 37904 ft | 461 kts | 342° |
| 2026-05-06 13:29 | 50.12432 | 2.14204 | 37903 ft | 460 kts | 342° |
| 2026-05-06 13:30 | 50.18569 | 2.11352 | 37896 ft | 460 kts | 342° |
| 2026-05-06 13:30 | 50.24684 | 2.08501 | 37895 ft | 460 kts | 342° |
| 2026-05-06 13:31 | 50.30786 | 2.05649 | 37900 ft | 460 kts | 342° |
| 2026-05-06 13:31 | 50.36760 | 2.02136 | 37898 ft | 458 kts | 331° |
| 2026-05-06 13:32 | 50.41968 | 1.96522 | 37898 ft | 456 kts | 320° |
| 2026-05-06 13:32 | 50.46747 | 1.90073 | 37907 ft | 455 kts | 317° |
| 2026-05-06 13:33 | 50.51473 | 1.83433 | 37917 ft | 455 kts | 317° |
| 2026-05-06 13:33 | 50.56182 | 1.76848 | 37925 ft | 455 kts | 317° |
| 2026-05-06 13:34 | 50.60917 | 1.70281 | 37928 ft | 455 kts | 318° |
| 2026-05-06 13:34 | 50.65661 | 1.63720 | 37927 ft | 455 kts | 318° |
| 2026-05-06 13:35 | 50.70387 | 1.57179 | 37927 ft | 455 kts | 318° |
| 2026-05-06 13:35 | 50.75125 | 1.50605 | 37927 ft | 455 kts | 318° |
| 2026-05-06 13:36 | 50.79848 | 1.44035 | 37929 ft | 454 kts | 318° |
| 2026-05-06 13:36 | 50.84572 | 1.37451 | 37929 ft | 454 kts | 318° |
| 2026-05-06 13:37 | 50.89321 | 1.30817 | 37936 ft | 454 kts | 317° |
| 2026-05-06 13:37 | 50.94012 | 1.24245 | 37930 ft | 454 kts | 317° |
| 2026-05-06 13:38 | 50.98730 | 1.17616 | 37939 ft | 454 kts | 317° |
| 2026-05-06 13:38 | 51.03413 | 1.10902 | 37938 ft | 453 kts | 314° |
| 2026-05-06 13:39 | 51.07198 | 1.03081 | 37942 ft | 450 kts | 297° |
| 2026-05-06 13:39 | 51.09736 | 0.94064 | 37951 ft | 449 kts | 291° |
| 2026-05-06 13:40 | 51.11971 | 0.84801 | 37954 ft | 450 kts | 290° |
| 2026-05-06 13:40 | 51.14164 | 0.75548 | 37955 ft | 449 kts | 290° |
| 2026-05-06 13:41 | 51.16372 | 0.66307 | 37952 ft | 449 kts | 290° |
| 2026-05-06 13:41 | 51.18602 | 0.57037 | 37955 ft | 448 kts | 290° |
| 2026-05-06 13:42 | 51.20835 | 0.47760 | 37816 ft | 448 kts | 290° |
| 2026-05-06 13:42 | 51.23047 | 0.38554 | 37949 ft | 450 kts | 290° |
| 2026-05-06 13:43 | 51.25286 | 0.29205 | 37964 ft | 449 kts | 290° |
| 2026-05-06 13:43 | 51.27487 | 0.19976 | 37964 ft | 448 kts | 290° |
| 2026-05-06 13:44 | 51.29697 | 0.10667 | 37968 ft | 449 kts | 290° |
| 2026-05-06 13:44 | 51.31897 | 0.01367 | 37971 ft | 447 kts | 290° |
| 2026-05-06 13:45 | 51.34082 | -0.07915 | 37973 ft | 447 kts | 290° |
| 2026-05-06 13:45 | 51.37337 | -0.21815 | 37975 ft | 447 kts | 290° |
| 2026-05-06 13:46 | 51.39514 | -0.31165 | 37975 ft | 447 kts | 290° |
| 2026-05-06 13:46 | 51.41662 | -0.40427 | 37973 ft | 446 kts | 290° |
| 2026-05-06 13:47 | 51.43802 | -0.49694 | 37978 ft | 446 kts | 290° |
| 2026-05-06 13:47 | 51.45946 | -0.59018 | 37977 ft | 445 kts | 290° |
| 2026-05-06 13:48 | 51.48067 | -0.68289 | 37980 ft | 446 kts | 289° |
| 2026-05-06 13:48 | 51.50183 | -0.77571 | 37977 ft | 444 kts | 289° |
| 2026-05-06 13:49 | 51.52292 | -0.86867 | 38085 ft | 446 kts | 289° |
| 2026-05-06 13:49 | 51.54388 | -0.96144 | 37929 ft | 439 kts | 289° |
| 2026-05-06 13:50 | 51.56472 | -1.05413 | 37980 ft | 446 kts | 289° |
| 2026-05-06 13:50 | 51.58567 | -1.14771 | 38100 ft | 445 kts | 289° |
| 2026-05-06 13:51 | 51.60650 | -1.24112 | 37994 ft | 441 kts | 289° |
| 2026-05-06 13:51 | 51.62710 | -1.33390 | 37984 ft | 443 kts | 289° |
| 2026-05-06 13:52 | 51.64770 | -1.42713 | 37979 ft | 442 kts | 289° |
| 2026-05-06 13:52 | 51.66817 | -1.52016 | 37983 ft | 442 kts | 289° |
| 2026-05-06 13:53 | 51.68854 | -1.61312 | 37987 ft | 443 kts | 289° |
| 2026-05-06 13:53 | 51.71034 | -1.70625 | 37985 ft | 443 kts | 292° |
| 2026-05-06 13:54 | 51.73682 | -1.79558 | 37988 ft | 443 kts | 295° |
| 2026-05-06 13:54 | 51.76476 | -1.88396 | 37982 ft | 443 kts | 296° |
| 2026-05-06 13:55 | 51.79240 | -1.97169 | 37993 ft | 443 kts | 296° |
| 2026-05-06 13:55 | 51.81978 | -2.06043 | 37993 ft | 442 kts | 295° |
| 2026-05-06 13:56 | 51.84529 | -2.15057 | 38013 ft | 441 kts | 293° |
| 2026-05-06 13:56 | 51.86986 | -2.24079 | 38002 ft | 442 kts | 293° |
| 2026-05-06 13:57 | 51.89460 | -2.33174 | 38000 ft | 442 kts | 293° |
| 2026-05-06 13:57 | 51.91933 | -2.42241 | 38007 ft | 443 kts | 293° |
| 2026-05-06 13:58 | 51.94415 | -2.51344 | 37998 ft | 442 kts | 293° |
| 2026-05-06 13:58 | 51.96878 | -2.60400 | 37997 ft | 442 kts | 293° |
| 2026-05-06 13:59 | 51.99344 | -2.69494 | 38003 ft | 442 kts | 292° |
| 2026-05-06 13:59 | 52.01811 | -2.78628 | 38001 ft | 442 kts | 292° |
| 2026-05-06 14:00 | 52.04256 | -2.87713 | 38002 ft | 440 kts | 293° |
| 2026-05-06 14:00 | 52.06698 | -2.96825 | 38003 ft | 441 kts | 292° |
| 2026-05-06 14:01 | 52.09124 | -3.05915 | 38000 ft | 442 kts | 292° |
| 2026-05-06 14:01 | 52.11564 | -3.15091 | 37996 ft | 441 kts | 292° |
| 2026-05-06 14:02 | 52.13985 | -3.24233 | 37996 ft | 442 kts | 293° |
| 2026-05-06 14:02 | 52.16405 | -3.33408 | 37982 ft | 442 kts | 293° |
| 2026-05-06 14:03 | 52.18802 | -3.42532 | 37983 ft | 442 kts | 293° |
| 2026-05-06 14:03 | 52.21210 | -3.51735 | 37990 ft | 439 kts | 293° |
| 2026-05-06 14:04 | 52.22382 | -3.56226 | 37989 ft | 425 kts | 293° |
| 2026-05-06 14:04 | 52.23518 | -3.60589 | 37983 ft | 413 kts | 293° |
| 2026-05-06 14:04 | 52.25744 | -3.69160 | 37982 ft | 416 kts | 292° |
| 2026-05-06 14:05 | 52.28003 | -3.77902 | 37976 ft | 421 kts | 292° |
| 2026-05-06 14:05 | 52.30263 | -3.86674 | 37985 ft | 419 kts | 292° |
| 2026-05-06 14:06 | 52.32125 | -3.93931 | 37992 ft | 420 kts | 292° |
| 2026-05-06 14:06 | 52.33617 | -3.99758 | 37891 ft | 413 kts | 292° |
| 2026-05-06 14:06 | 52.34700 | -4.03999 | 37681 ft | 406 kts | 292° |
| 2026-05-06 14:07 | 52.35781 | -4.08240 | 37280 ft | 405 kts | 292° |
| 2026-05-06 14:07 | 52.36871 | -4.12525 | 36760 ft | 408 kts | 292° |
| 2026-05-06 14:07 | 52.37955 | -4.16793 | 36253 ft | 410 kts | 292° |
| 2026-05-06 14:07 | 52.39031 | -4.21041 | 35777 ft | 410 kts | 292° |
| 2026-05-06 14:08 | 52.40121 | -4.25347 | 35274 ft | 410 kts | 292° |
| 2026-05-06 14:08 | 52.41199 | -4.29614 | 34775 ft | 410 kts | 292° |
| 2026-05-06 14:08 | 52.42363 | -4.33867 | 34216 ft | 409 kts | 296° |
| 2026-05-06 14:08 | 52.43759 | -4.37886 | 33696 ft | 407 kts | 303° |
| 2026-05-06 14:09 | 52.45451 | -4.41540 | 33199 ft | 404 kts | 309° |
| 2026-05-06 14:09 | 52.47314 | -4.45000 | 32716 ft | 401 kts | 312° |
| 2026-05-06 14:09 | 52.48574 | -4.47205 | 32394 ft | 399 kts | 313° |
| 2026-05-06 14:09 | 52.51118 | -4.51542 | 31754 ft | 394 kts | 313° |
| 2026-05-06 14:10 | 52.52998 | -4.54735 | 31281 ft | 391 kts | 313° |
| 2026-05-06 14:10 | 52.54858 | -4.57915 | 30795 ft | 388 kts | 313° |
| 2026-05-06 14:10 | 52.56087 | -4.60032 | 30470 ft | 385 kts | 313° |
| 2026-05-06 14:10 | 52.58517 | -4.64250 | 29844 ft | 379 kts | 313° |
| 2026-05-06 14:11 | 52.60323 | -4.67407 | 29377 ft | 375 kts | 312° |
| 2026-05-06 14:11 | 52.62085 | -4.70501 | 28919 ft | 372 kts | 312° |
| 2026-05-06 14:11 | 52.63828 | -4.73570 | 28468 ft | 368 kts | 312° |
| 2026-05-06 14:11 | 52.65567 | -4.76643 | 28018 ft | 364 kts | 312° |
| 2026-05-06 14:12 | 52.67256 | -4.79632 | 27578 ft | 360 kts | 312° |
| 2026-05-06 14:12 | 52.68401 | -4.81659 | 27280 ft | 357 kts | 312° |
| 2026-05-06 14:12 | 52.70634 | -4.85623 | 26694 ft | 352 kts | 312° |
| 2026-05-06 14:12 | 52.72273 | -4.88536 | 26266 ft | 348 kts | 312° |
| 2026-05-06 14:13 | 52.73918 | -4.91463 | 25835 ft | 345 kts | 312° |
| 2026-05-06 14:13 | 52.74985 | -4.93363 | 25554 ft | 342 kts | 312° |
| 2026-05-06 14:13 | 52.77130 | -4.97189 | 24988 ft | 338 kts | 312° |
| 2026-05-06 14:13 | 52.78702 | -4.99996 | 24573 ft | 334 kts | 312° |
| 2026-05-06 14:14 | 52.80260 | -5.02782 | 24161 ft | 331 kts | 312° |
| 2026-05-06 14:14 | 52.81805 | -5.05548 | 23757 ft | 328 kts | 312° |
| 2026-05-06 14:14 | 52.83351 | -5.08319 | 23348 ft | 325 kts | 311° |
| 2026-05-06 14:14 | 52.84858 | -5.11022 | 22953 ft | 322 kts | 311° |
| 2026-05-06 14:15 | 52.85855 | -5.12812 | 22693 ft | 320 kts | 311° |
| 2026-05-06 14:15 | 52.87861 | -5.16417 | 22158 ft | 316 kts | 311° |
| 2026-05-06 14:15 | 52.89326 | -5.19054 | 21769 ft | 314 kts | 311° |
| 2026-05-06 14:15 | 52.90735 | -5.21778 | 21302 ft | 313 kts | 306° |
| 2026-05-06 14:16 | 52.91954 | -5.24723 | 20874 ft | 311 kts | 302° |
| 2026-05-06 14:16 | 52.93088 | -5.27741 | 20485 ft | 308 kts | 301° |
| 2026-05-06 14:16 | 52.94214 | -5.30767 | 20098 ft | 306 kts | 301° |
| 2026-05-06 14:16 | 52.95331 | -5.33712 | 19719 ft | 303 kts | 302° |
| 2026-05-06 14:17 | 52.96467 | -5.36648 | 19333 ft | 301 kts | 302° |
| 2026-05-06 14:17 | 52.97591 | -5.39515 | 18964 ft | 298 kts | 302° |
| 2026-05-06 14:17 | 52.98713 | -5.42362 | 18589 ft | 296 kts | 302° |
| 2026-05-06 14:17 | 52.99833 | -5.45198 | 18215 ft | 293 kts | 303° |
| 2026-05-06 14:18 | 53.00938 | -5.47992 | 17856 ft | 291 kts | 303° |
| 2026-05-06 14:18 | 53.01681 | -5.49869 | 17610 ft | 289 kts | 303° |
| 2026-05-06 14:18 | 53.03146 | -5.53575 | 17122 ft | 286 kts | 303° |
| 2026-05-06 14:18 | 53.04176 | -5.56358 | 16736 ft | 285 kts | 298° |
| 2026-05-06 14:19 | 53.05077 | -5.59254 | 16372 ft | 283 kts | 296° |
| 2026-05-06 14:19 | 53.05937 | -5.62182 | 16014 ft | 281 kts | 296° |
| 2026-05-06 14:19 | 53.06793 | -5.65045 | 15664 ft | 279 kts | 296° |
| 2026-05-06 14:19 | 53.07681 | -5.67927 | 15305 ft | 277 kts | 296° |
| 2026-05-06 14:20 | 53.08557 | -5.70733 | 14958 ft | 275 kts | 296° |
| 2026-05-06 14:20 | 53.09150 | -5.72618 | 14725 ft | 274 kts | 297° |
| 2026-05-06 14:20 | 53.10311 | -5.76311 | 14257 ft | 271 kts | 296° |
| 2026-05-06 14:20 | 53.11179 | -5.79073 | 13916 ft | 269 kts | 296° |
| 2026-05-06 14:21 | 53.12037 | -5.81809 | 13575 ft | 268 kts | 296° |
| 2026-05-06 14:21 | 53.12896 | -5.84550 | 13235 ft | 266 kts | 296° |
| 2026-05-06 14:21 | 53.13764 | -5.87326 | 12893 ft | 277 kts | 296° |
| 2026-05-06 14:21 | 53.14657 | -5.90194 | 12529 ft | 285 kts | 296° |
| 2026-05-06 14:22 | 53.15568 | -5.93124 | 12151 ft | 282 kts | 296° |
| 2026-05-06 14:22 | 53.16459 | -5.95995 | 11720 ft | 281 kts | 296° |
| 2026-05-06 14:22 | 53.17041 | -5.97916 | 11471 ft | 281 kts | 295° |
| 2026-05-06 14:22 | 53.17859 | -6.00833 | 11065 ft | 280 kts | 294° |
| 2026-05-06 14:23 | 53.18920 | -6.04792 | 10531 ft | 279 kts | 294° |
| 2026-05-06 14:23 | 53.19711 | -6.07719 | 10084 ft | 279 kts | 294° |
| 2026-05-06 14:23 | 53.20239 | -6.09654 | 9810 ft | 278 kts | 294° |
| 2026-05-06 14:23 | 53.21313 | -6.13564 | 9236 ft | 278 kts | 294° |
| 2026-05-06 14:24 | 53.22119 | -6.16490 | 8827 ft | 277 kts | 294° |
| 2026-05-06 14:24 | 53.22652 | -6.18429 | 8556 ft | 277 kts | 294° |
| 2026-05-06 14:24 | 53.23448 | -6.21323 | 8158 ft | 276 kts | 294° |
| 2026-05-06 14:24 | 53.24243 | -6.24220 | 7756 ft | 276 kts | 294° |
| 2026-05-06 14:25 | 53.25299 | -6.28073 | 7302 ft | 272 kts | 294° |
| 2026-05-06 14:25 | 53.26074 | -6.30902 | 7048 ft | 266 kts | 294° |
| 2026-05-06 14:25 | 53.26833 | -6.33679 | 6797 ft | 264 kts | 294° |
| 2026-05-06 14:25 | 53.27342 | -6.35547 | 6628 ft | 264 kts | 294° |
| 2026-05-06 14:26 | 53.28351 | -6.39251 | 6296 ft | 263 kts | 294° |
| 2026-05-06 14:26 | 53.29107 | -6.42029 | 6039 ft | 259 kts | 294° |
| 2026-05-06 14:26 | 53.29597 | -6.43831 | 5872 ft | 254 kts | 294° |
| 2026-05-06 14:26 | 53.30320 | -6.46488 | 5620 ft | 247 kts | 294° |
| 2026-05-06 14:27 | 53.31250 | -6.49913 | 5287 ft | 240 kts | 294° |
| 2026-05-06 14:27 | 53.31930 | -6.52447 | 5034 ft | 237 kts | 294° |
| 2026-05-06 14:27 | 53.32380 | -6.54105 | 4836 ft | 237 kts | 294° |
| 2026-05-06 14:27 | 53.33333 | -6.57405 | 4403 ft | 238 kts | 303° |
| 2026-05-06 14:28 | 53.34064 | -6.58775 | 4164 ft | 240 kts | 322° |
| 2026-05-06 14:28 | 53.35546 | -6.59904 | 3833 ft | 239 kts | 350° |
| 2026-05-06 14:28 | 53.37195 | -6.59931 | 3591 ft | 234 kts | 7° |
| 2026-05-06 14:28 | 53.38751 | -6.59373 | 3353 ft | 229 kts | 18° |
| 2026-05-06 14:29 | 53.40227 | -6.58478 | 3169 ft | 222 kts | 21° |
| 2026-05-06 14:29 | 53.42064 | -6.57195 | 3005 ft | 207 kts | 28° |
| 2026-05-06 14:29 | 53.43242 | -6.55922 | 2981 ft | 196 kts | 41° |
| 2026-05-06 14:29 | 53.44175 | -6.54355 | 2983 ft | 186 kts | 51° |
| 2026-05-06 14:30 | 53.44909 | -6.52637 | 2991 ft | 177 kts | 60° |
| 2026-05-06 14:30 | 53.45230 | -6.51404 | 2979 ft | 170 kts | 80° |
| 2026-05-06 14:30 | 53.45019 | -6.48869 | 2769 ft | 171 kts | 105° |
| 2026-05-06 14:30 | 53.44825 | -6.46870 | 2499 ft | 176 kts | 98° |
| 2026-05-06 14:31 | 53.44683 | -6.44834 | 2251 ft | 172 kts | 97° |
| 2026-05-06 14:31 | 53.44557 | -6.42888 | 2021 ft | 164 kts | 97° |
| 2026-05-06 14:31 | 53.44446 | -6.41029 | 1802 ft | 157 kts | 96° |
| 2026-05-06 14:31 | 53.44376 | -6.39832 | 1675 ft | 154 kts | 96° |
| 2026-05-06 14:32 | 53.44275 | -6.38046 | 1450 ft | 153 kts | 96° |
| 2026-05-06 14:32 | 53.44176 | -6.36302 | 1246 ft | 151 kts | 95° |
| 2026-05-06 14:32 | 53.44046 | -6.33980 | 974 ft | 149 kts | 96° |
| 2026-05-06 14:32 | 53.43948 | -6.32252 | 774 ft | 148 kts | 95° |
| 2026-05-06 14:33 | 53.43883 | -6.31102 | 651 ft | 146 kts | 95° |
| 2026-05-06 14:33 | 53.43769 | -6.28855 | 369 ft | 145 kts | 97° |
| 2026-05-06 14:33 | 53.43675 | -6.27271 | 235 ft | 126 kts | 96° |
| 2026-05-06 14:33 | 53.43616 | -6.26203 | 221 ft | 58 kts | 96° |
| 2026-05-06 14:34 | 53.43589 | -6.25811 | 215 ft | 55 kts | 95° |
| 2026-05-06 14:34 | 53.43486 | -6.25113 | 208 ft | 8 kts | 119° |
| 2026-05-06 14:34 | 53.43485 | -6.25108 | 208 ft | 0 kts | 119° |
| 2026-05-06 14:34 | 53.43480 | -6.25093 | 208 ft | 1 kts | 119° |
| 2026-05-06 14:35 | 53.43472 | -6.25071 | 208 ft | 3 kts | 120° |
| 2026-05-06 14:35 | 53.43459 | -6.25033 | 208 ft | 4 kts | 120° |
| 2026-05-06 14:35 | 53.43451 | -6.25010 | 208 ft | 3 kts | 122° |
| 2026-05-06 14:35 | 53.43397 | -6.25011 | 208 ft | 7 kts | 231° |
| 2026-05-06 14:36 | 53.43385 | -6.25075 | 208 ft | 11 kts | 263° |
| 2026-05-06 14:36 | 53.43393 | -6.25241 | 208 ft | 14 kts | 275° |
| 2026-05-06 14:36 | 53.43402 | -6.25428 | 211 ft | 12 kts | 276° |
| 2026-05-06 14:36 | 53.43412 | -6.25570 | 213 ft | 10 kts | 277° |
| 2026-05-06 14:37 | 53.43383 | -6.25650 | 214 ft | 11 kts | 187° |
| 2026-05-06 14:37 | 53.43318 | -6.25622 | 214 ft | 17 kts | 159° |
| 2026-05-06 14:37 | 53.43190 | -6.25526 | 212 ft | 13 kts | 115° |
| 2026-05-06 14:37 | 53.43209 | -6.25392 | 211 ft | 10 kts | 66° |
| 2026-05-06 14:38 | 53.43228 | -6.25321 | 211 ft | 10 kts | 70° |
| 2026-05-06 14:38 | 53.43229 | -6.25197 | 208 ft | 10 kts | 97° |
| 2026-05-06 14:38 | 53.43201 | -6.25084 | 208 ft | 6 kts | 167° |
| 2026-05-06 14:38 | 53.43176 | -6.25084 | 208 ft | 4 kts | 184° |
| 2026-05-06 14:39 | 53.43140 | -6.25089 | 208 ft | 3 kts | 185° |
| 2026-05-06 14:39 | 53.43127 | -6.25091 | 208 ft | 0 kts | 185° |